Time;durP1;ratioP1;P1;durP2;ratioP2;P2;SDS_P1;SDS_P2;PMS_P1;PMS_P2;Temp;Humidity;BMP_temperature;BMP_pressure;BME280_temperature;BME280_humidity;BME280_pressure;Samples;Min_cycle;Max_cycle;Signal;HPM_P1;HPM_P2
2021/01/28 00:00:51;;;;;;;17.17;11.10;;;1.60;84.60;;;;;;5067659;28;20111;-50
2021/01/28 00:03:16;;;;;;;18.90;10.27;;;1.60;84.80;;;;;;5074393;28;20461;-47
2021/01/28 00:05:44;;;;;;;14.27;9.82;;;1.60;84.70;;;;;;5073770;28;20093;-48
2021/01/28 00:08:09;;;;;;;14.15;9.52;;;1.60;84.60;;;;;;5074421;28;20343;-46
2021/01/28 00:10:36;;;;;;;13.98;9.05;;;1.60;84.60;;;;;;5077314;28;20017;-48
2021/01/28 00:13:04;;;;;;;13.18;9.25;;;1.70;84.80;;;;;;5078190;28;20035;-48
2021/01/28 00:15:31;;;;;;;13.32;8.63;;;1.70;85.30;;;;;;5077151;28;20025;-47
2021/01/28 00:17:58;;;;;;;17.95;11.07;;;1.70;84.60;;;;;;5077438;28;20065;-47
2021/01/28 00:20:36;;;;;;;21.33;11.63;;;1.70;84.40;;;;;;5077056;28;20032;-46
2021/01/28 00:23:03;;;;;;;17.15;11.15;;;1.70;84.40;;;;;;5077811;28;20090;-47
2021/01/28 00:25:29;;;;;;;16.23;11.48;;;1.70;84.40;;;;;;5076592;28;20025;-48
2021/01/28 00:27:55;;;;;;;13.57;9.40;;;1.70;84.40;;;;;;5077570;28;20111;-47
2021/01/28 00:30:35;;;;;;;14.38;9.20;;;1.70;84.20;;;;;;5077184;28;20024;-47
2021/01/28 00:33:02;;;;;;;16.50;9.68;;;1.70;84.20;;;;;;5078098;28;20060;-47
2021/01/28 00:35:34;;;;;;;13.48;9.38;;;1.60;84.10;;;;;;5078572;28;20381;-46
2021/01/28 00:38:02;;;;;;;14.82;9.30;;;1.60;84.10;;;;;;5079043;28;20036;-47
2021/01/28 00:40:29;;;;;;;13.57;8.70;;;1.60;84.30;;;;;;5077559;28;20079;-48
2021/01/28 00:42:55;;;;;;;13.23;8.25;;;1.60;84.30;;;;;;5079024;28;20058;-47
2021/01/28 00:45:24;;;;;;;15.25;9.45;;;1.60;84.40;;;;;;5077878;28;20024;-47
2021/01/28 00:47:50;;;;;;;15.30;8.40;;;1.60;84.40;;;;;;5078158;28;20036;-47
2021/01/28 00:50:20;;;;;;;13.05;8.45;;;1.60;84.30;;;;;;5078371;28;20021;-48
2021/01/28 00:52:46;;;;;;;11.35;7.88;;;1.60;84.40;;;;;;5079021;28;20029;-46
2021/01/28 00:55:13;;;;;;;13.38;8.80;;;1.60;84.30;;;;;;5077508;28;20526;-50
2021/01/28 00:57:39;;;;;;;12.85;8.10;;;1.60;84.30;;;;;;5077927;28;20056;-47
2021/01/28 01:00:15;;;;;;;14.15;8.48;;;1.60;84.20;;;;;;5077717;28;20070;-48
2021/01/28 01:02:44;;;;;;;11.18;7.90;;;1.60;84.30;;;;;;5078269;28;20052;-47
2021/01/28 01:05:16;;;;;;;11.98;8.27;;;1.60;84.40;;;;;;5078438;28;20108;-47
2021/01/28 01:07:41;;;;;;;;;;;1.60;84.40;;;;;;5078340;28;20043;-46
2021/01/28 01:10:10;;;;;;;12.68;8.05;;;1.50;84.40;;;;;;5077320;28;19908;-48
2021/01/28 01:12:36;;;;;;;12.25;8.60;;;1.50;84.50;;;;;;5078044;28;20036;-45
2021/01/28 01:15:04;;;;;;;12.20;8.13;;;1.50;84.60;;;;;;5077900;28;20108;-46
2021/01/28 01:17:30;;;;;;;13.80;8.07;;;1.50;84.80;;;;;;5077442;28;20114;-45
2021/01/28 01:19:56;;;;;;;11.98;7.60;;;1.50;84.90;;;;;;5076416;28;20385;-47
2021/01/28 01:22:21;;;;;;;11.07;8.07;;;1.50;85.00;;;;;;5077597;28;20029;-45
2021/01/28 01:24:47;;;;;;;10.63;7.72;;;1.50;84.90;;;;;;5077306;28;20017;-50
2021/01/28 01:27:13;;;;;;;12.13;7.82;;;1.50;84.90;;;;;;5076840;28;20119;-46
2021/01/28 01:29:38;;;;;;;14.05;7.82;;;1.60;85.00;;;;;;5077817;28;20020;-46
2021/01/28 01:32:04;;;;;;;11.13;6.97;;;1.60;85.00;;;;;;5076949;28;20500;-46
2021/01/28 01:34:30;;;;;;;11.35;7.38;;;1.60;84.70;;;;;;5077778;28;20016;-46
2021/01/28 01:36:56;;;;;;;12.98;8.27;;;1.50;84.50;;;;;;5077264;28;20031;-46
2021/01/28 01:39:21;;;;;;;10.32;7.25;;;1.50;84.60;;;;;;5077387;28;20022;-47
2021/01/28 01:41:47;;;;;;;11.35;7.88;;;1.50;84.60;;;;;;5077778;28;20020;-47
2021/01/28 01:44:13;;;;;;;12.02;7.40;;;1.50;84.70;;;;;;5078079;28;20039;-46
2021/01/28 01:46:38;;;;;;;12.25;7.70;;;1.50;84.60;;;;;;5077424;28;20025;-47
2021/01/28 01:49:09;;;;;;;9.10;6.85;;;1.50;84.60;;;;;;5077722;28;20024;-47
2021/01/28 01:51:39;;;;;;;11.05;7.13;;;1.50;84.70;;;;;;5077112;28;20027;-46
2021/01/28 01:54:16;;;;;;;12.95;7.32;;;1.50;84.60;;;;;;5077642;28;20054;-46
2021/01/28 01:56:50;;;;;;;10.50;6.43;;;1.50;84.60;;;;;;5076995;28;20016;-46
2021/01/28 01:59:45;;;;;;;9.32;6.82;;;1.50;84.80;;;;;;5077927;28;20354;-45
2021/01/28 02:02:17;;;;;;;10.00;7.05;;;1.50;84.70;;;;;;5075713;28;20143;-48
2021/01/28 02:04:46;;;;;;;10.57;6.72;;;1.50;84.70;;;;;;5077337;28;20066;-46
2021/01/28 02:07:20;;;;;;;10.15;6.68;;;1.50;84.80;;;;;;5076947;28;20028;-46
2021/01/28 02:09:46;;;;;;;9.07;6.30;;;1.50;84.70;;;;;;5077207;28;20025;-47
2021/01/28 02:12:12;;;;;;;8.15;5.75;;;1.50;84.70;;;;;;5076942;28;20373;-46
2021/01/28 02:14:39;;;;;;;10.15;6.22;;;1.60;84.80;;;;;;5076612;28;20312;-45
2021/01/28 02:17:17;;;;;;;8.60;6.13;;;1.60;84.70;;;;;;5075974;28;20057;-46
2021/01/28 02:19:52;;;;;;;7.57;5.90;;;1.60;84.70;;;;;;5077045;28;20032;-45
2021/01/28 02:22:38;;;;;;;10.32;6.07;;;1.60;84.70;;;;;;5076469;28;20040;-45
2021/01/28 02:25:13;;;;;;;9.02;6.45;;;1.60;84.40;;;;;;5076616;28;20350;-45
2021/01/28 02:27:41;;;;;;;12.73;6.88;;;1.60;84.50;;;;;;5076053;28;20029;-46
2021/01/28 02:30:07;;;;;;;9.75;7.05;;;1.60;84.40;;;;;;5076557;28;20024;-46
2021/01/28 02:32:33;;;;;;;9.40;6.22;;;1.60;84.30;;;;;;5076382;28;20040;-46
2021/01/28 02:34:59;;;;;;;8.43;6.18;;;1.60;84.10;;;;;;5076694;28;20070;-49
2021/01/28 02:37:24;;;;;;;11.05;6.47;;;1.60;84.10;;;;;;5076174;28;20040;-45
2021/01/28 02:39:50;;;;;;;10.57;6.50;;;1.60;84.20;;;;;;5076099;28;20028;-50
2021/01/28 02:42:26;;;;;;;10.07;6.85;;;1.60;84.20;;;;;;5076464;28;20446;-46
2021/01/28 02:44:52;;;;;;;10.68;7.05;;;1.60;84.20;;;;;;5076359;28;20043;-47
2021/01/28 02:47:17;;;;;;;9.90;6.70;;;1.50;84.10;;;;;;5076735;28;20056;-45
2021/01/28 02:49:43;;;;;;;10.40;7.15;;;1.50;84.20;;;;;;5075692;28;20020;-47
2021/01/28 02:52:09;;;;;;;9.27;5.93;;;1.50;84.30;;;;;;5076129;28;20024;-46
2021/01/28 02:54:46;;;;;;;9.02;6.45;;;1.50;84.30;;;;;;5076275;28;20021;-46
2021/01/28 02:57:13;;;;;;;10.15;6.88;;;1.50;84.30;;;;;;5075882;28;20334;-46
2021/01/28 02:59:39;;;;;;;10.48;6.47;;;1.50;84.60;;;;;;5075815;28;20515;-47
2021/01/28 03:02:08;;;;;;;10.73;7.07;;;1.50;84.70;;;;;;5075141;28;20032;-46
2021/01/28 03:04:33;;;;;;;10.43;6.45;;;1.50;84.70;;;;;;5076800;28;20031;-46
2021/01/28 03:06:59;;;;;;;9.30;6.57;;;1.60;84.50;;;;;;5074894;28;20330;-47
2021/01/28 03:09:25;;;;;;;9.80;7.07;;;1.50;84.40;;;;;;5076706;28;20389;-46
2021/01/28 03:11:51;;;;;;;10.75;7.05;;;1.50;84.40;;;;;;5075289;28;20028;-46
2021/01/28 03:14:17;;;;;;;11.85;6.97;;;1.50;84.50;;;;;;5075424;28;20032;-48
2021/01/28 03:16:43;;;;;;;10.43;6.90;;;1.60;84.70;;;;;;5075692;28;20024;-48
2021/01/28 03:19:09;;;;;;;9.45;6.35;;;1.60;84.80;;;;;;5075879;28;20064;-46
2021/01/28 03:21:34;;;;;;;12.48;7.00;;;1.60;84.80;;;;;;5074949;28;20036;-48
2021/01/28 03:24:00;;;;;;;10.48;7.20;;;1.60;84.70;;;;;;5076539;28;20040;-46
2021/01/28 03:26:26;;;;;;;9.10;6.50;;;1.60;84.80;;;;;;5075032;28;20028;-48
2021/01/28 03:28:53;;;;;;;11.05;7.15;;;1.70;84.70;;;;;;5076047;28;20036;-46
2021/01/28 03:31:19;;;;;;;12.15;8.10;;;1.60;84.70;;;;;;5075456;28;20028;-45
2021/01/28 03:33:44;;;;;;;9.82;7.00;;;1.70;84.70;;;;;;5076078;28;20050;-46
2021/01/28 03:36:10;;;;;;;11.43;7.40;;;1.70;84.70;;;;;;5074590;28;20277;-47
2021/01/28 03:38:36;;;;;;;11.65;7.32;;;1.70;84.60;;;;;;5074840;28;20089;-46
2021/01/28 03:41:02;;;;;;;14.45;9.45;;;1.70;84.60;;;;;;5074703;28;20039;-49
2021/01/28 03:43:29;;;;;;;11.18;7.57;;;1.70;84.70;;;;;;5075209;28;20029;-45
2021/01/28 03:45:55;;;;;;;13.30;7.25;;;1.70;84.90;;;;;;5074990;28;20342;-46
2021/01/28 03:48:21;;;;;;;10.05;7.05;;;1.70;84.90;;;;;;5075539;28;20044;-46
2021/01/28 03:50:47;;;;;;;10.10;6.65;;;1.70;84.90;;;;;;5074500;28;20481;-45
2021/01/28 03:53:12;;;;;;;9.93;6.70;;;1.70;84.80;;;;;;5075445;28;20033;-46
2021/01/28 03:55:38;;;;;;;8.88;6.75;;;1.70;84.70;;;;;;5074835;28;20115;-46
2021/01/28 03:58:04;;;;;;;9.70;6.72;;;1.70;84.70;;;;;;5075746;28;20120;-48
2021/01/28 04:00:32;;;;;;;9.48;6.65;;;1.60;84.60;;;;;;5074516;28;20093;-45
2021/01/28 04:03:02;;;;;;;11.32;6.90;;;1.60;84.70;;;;;;5075177;28;20016;-46
2021/01/28 04:05:28;;;;;;;15.10;8.20;;;1.60;84.80;;;;;;5075195;28;20032;-45
2021/01/28 04:07:54;;;;;;;10.23;7.25;;;1.50;84.80;;;;;;5075220;28;20387;-45
2021/01/28 04:10:27;;;;;;;10.15;7.20;;;1.50;84.80;;;;;;5074833;28;20075;-49
2021/01/28 04:12:53;;;;;;;10.38;7.10;;;1.50;84.90;;;;;;5075152;28;20025;-46
2021/01/28 04:15:19;;;;;;;14.90;7.93;;;1.50;85.00;;;;;;5075039;28;20021;-47
2021/01/28 04:17:46;;;;;;;17.75;9.85;;;1.50;85.20;;;;;;5075122;28;20431;-46
2021/01/28 04:20:14;;;;;;;10.15;7.05;;;1.50;85.30;;;;;;5074803;28;20029;-46
2021/01/28 04:22:40;;;;;;;10.38;6.53;;;1.50;85.40;;;;;;5075338;28;20031;-47
2021/01/28 04:25:07;;;;;;;10.18;6.68;;;1.50;85.40;;;;;;5074834;28;20332;-45
2021/01/28 04:27:34;;;;;;;9.05;6.55;;;1.50;85.40;;;;;;5075120;28;20433;-46
2021/01/28 04:30:00;;;;;;;10.45;6.60;;;1.50;85.40;;;;;;5074508;28;20027;-46
2021/01/28 04:32:26;;;;;;;10.18;6.88;;;1.50;85.20;;;;;;5075185;28;20033;-46
2021/01/28 04:34:52;;;;;;;10.50;6.68;;;1.50;85.20;;;;;;5074876;28;20021;-46
2021/01/28 04:37:18;;;;;;;11.85;6.68;;;1.50;85.20;;;;;;5074714;28;20097;-46
2021/01/28 04:39:44;;;;;;;10.20;6.97;;;1.50;85.40;;;;;;5075040;28;20021;-46
2021/01/28 04:42:15;;;;;;;10.02;6.95;;;1.50;85.30;;;;;;5074629;28;20429;-45
2021/01/28 04:44:41;;;;;;;8.93;6.32;;;1.60;85.50;;;;;;5074352;28;20033;-49
2021/01/28 04:47:12;;;;;;;9.68;6.25;;;1.60;85.60;;;;;;5074434;28;20036;-46
2021/01/28 04:49:38;;;;;;;8.75;6.53;;;1.60;85.50;;;;;;5074879;28;20029;-46
2021/01/28 04:52:04;;;;;;;11.15;8.00;;;1.60;85.50;;;;;;5074497;28;20028;-46
2021/01/28 04:54:35;;;;;;;11.10;7.15;;;1.60;85.40;;;;;;5075227;28;20381;-45
2021/01/28 04:57:08;;;;;;;10.40;6.82;;;1.60;85.40;;;;;;5077817;28;20314;-47
2021/01/28 04:59:39;;;;;;;8.93;6.32;;;1.60;85.60;;;;;;5078216;28;20032;-46
2021/01/28 05:02:08;;;;;;;;;;;1.60;85.40;;;;;;5077801;28;20025;-46
2021/01/28 05:04:40;;;;;;;9.30;6.32;;;1.70;85.20;;;;;;5078866;28;19905;-46
2021/01/28 05:07:11;;;;;;;12.00;6.60;;;1.70;85.30;;;;;;5077452;28;20030;-46
2021/01/28 05:09:37;;;;;;;9.25;6.38;;;1.60;85.20;;;;;;5078137;28;20035;-47
2021/01/28 05:12:03;;;;;;;10.07;6.60;;;1.60;85.10;;;;;;5077904;28;20028;-47
2021/01/28 05:14:32;;;;;;;11.73;7.05;;;1.70;85.20;;;;;;5077648;28;20099;-46
2021/01/28 05:17:00;;;;;;;9.45;6.55;;;1.60;85.00;;;;;;5077526;28;20028;-47
2021/01/28 05:19:35;;;;;;;9.95;6.53;;;1.70;85.10;;;;;;5077978;28;20178;-46
2021/01/28 05:22:32;;;;;;;9.63;6.72;;;1.60;85.00;;;;;;5077887;28;20062;-48
2021/01/28 05:25:10;;;;;;;9.68;6.70;;;1.60;84.90;;;;;;5076070;28;20379;-50
2021/01/28 05:27:37;;;;;;;10.15;6.75;;;1.60;84.90;;;;;;5077056;28;20032;-49
2021/01/28 05:30:37;;;;;;;10.88;6.75;;;1.60;84.90;;;;;;5077109;28;20165;-47
2021/01/28 05:33:23;;;;;;;9.40;6.72;;;1.60;84.80;;;;;;5074506;28;20040;-46
2021/01/28 05:36:03;;;;;;;9.82;6.85;;;1.60;84.90;;;;;;5076752;28;20431;-45
2021/01/28 05:38:35;;;;;;;11.13;6.85;;;1.60;84.90;;;;;;5076325;28;20028;-46
2021/01/28 05:41:01;;;;;;;14.40;8.35;;;1.60;85.00;;;;;;5075846;28;20430;-46
2021/01/28 05:43:38;;;;;;;9.48;7.15;;;1.60;84.90;;;;;;5077286;28;20025;-46
2021/01/28 05:46:16;;;;;;;11.85;8.02;;;1.60;84.90;;;;;;5077234;28;20430;-46
2021/01/28 05:48:42;;;;;;;10.52;6.63;;;1.60;85.00;;;;;;5077487;28;20334;-46
2021/01/28 05:51:20;;;;;;;9.38;6.25;;;1.60;85.00;;;;;;5076748;28;20033;-45
2021/01/28 05:54:00;;;;;;;9.90;6.68;;;1.60;84.80;;;;;;5077797;28;20331;-47
2021/01/28 05:56:29;;;;;;;9.15;6.55;;;1.70;84.90;;;;;;5076945;28;20029;-50
2021/01/28 05:59:21;;;;;;;13.35;8.00;;;1.60;84.70;;;;;;5076124;28;20031;-48
2021/01/28 06:02:02;;;;;;;9.95;6.38;;;1.60;84.50;;;;;;5074813;28;20086;-47
2021/01/28 06:04:48;;;;;;;11.93;7.55;;;1.60;84.60;;;;;;5076521;28;20465;-50
2021/01/28 06:07:49;;;;;;;10.25;7.40;;;1.60;84.60;;;;;;5075102;28;20430;-48
2021/01/28 06:10:32;;;;;;;;;;;1.60;84.80;;;;;;5077038;28;20043;-46
2021/01/28 06:13:18;;;;;;;10.52;7.25;;;1.60;84.80;;;;;;5076139;28;20342;-46
2021/01/28 06:15:58;;;;;;;11.13;6.78;;;1.60;84.90;;;;;;5075060;28;20025;-46
2021/01/28 06:18:51;;;;;;;10.80;7.78;;;1.60;84.90;;;;;;5074285;28;20048;-46
2021/01/28 06:21:33;;;;;;;9.70;6.78;;;1.60;84.80;;;;;;5074764;28;20032;-46
2021/01/28 06:24:20;;;;;;;12.10;7.63;;;1.60;84.70;;;;;;5075391;28;20032;-48
2021/01/28 06:27:06;;;;;;;11.35;7.55;;;1.60;84.80;;;;;;5075887;28;20021;-47
2021/01/28 06:30:07;;;;;;;14.75;9.90;;;1.60;84.80;;;;;;5075177;28;20029;-47
2021/01/28 06:33:06;;;;;;;18.30;10.40;;;1.50;84.80;;;;;;5069988;28;20085;-45
2021/01/28 06:36:10;;;;;;;14.90;9.65;;;1.60;84.80;;;;;;5073328;28;20032;-45
2021/01/28 06:38:47;;;;;;;15.63;10.45;;;1.60;84.90;;;;;;5073952;28;20050;-46
2021/01/28 06:41:19;;;;;;;18.10;11.63;;;1.60;84.90;;;;;;5074356;28;20446;-47
2021/01/28 06:44:14;;;;;;;15.55;10.02;;;1.60;85.00;;;;;;5076389;28;20082;-45
2021/01/28 06:47:21;;;;;;;14.00;9.57;;;1.60;84.90;;;;;;5073538;28;20040;-46
2021/01/28 06:49:59;;;;;;;13.88;9.80;;;1.60;84.80;;;;;;5053203;28;20043;-46
2021/01/28 06:53:07;;;;;;;13.65;9.27;;;1.60;84.70;;;;;;5072996;28;20036;-46
2021/01/28 06:55:38;;;;;;;13.30;8.80;;;1.70;84.70;;;;;;5074821;28;20089;-48
2021/01/28 06:58:12;;;;;;;14.52;9.38;;;1.60;84.70;;;;;;5076121;28;20033;-46
2021/01/28 07:01:04;;;;;;;13.07;9.02;;;1.70;84.90;;;;;;5074889;28;20036;-50
2021/01/28 07:03:51;;;;;;;13.25;8.98;;;1.70;84.80;;;;;;5056949;28;20059;-46
2021/01/28 07:06:22;;;;;;;13.45;9.13;;;1.70;84.80;;;;;;5072378;28;20029;-46
2021/01/28 07:09:17;;;;;;;23.17;13.30;;;1.70;84.60;;;;;;5074385;28;20373;-49
2021/01/28 07:11:44;;;;;;;14.02;8.77;;;1.80;84.90;;;;;;5073606;28;20025;-48
2021/01/28 07:14:18;;;;;;;13.20;9.02;;;1.80;84.70;;;;;;5074774;28;20031;-46
2021/01/28 07:17:03;;;;;;;15.38;9.82;;;1.80;84.80;;;;;;5071238;28;20021;-50
2021/01/28 07:19:37;;;;;;;14.70;9.48;;;1.80;84.50;;;;;;5071986;28;20102;-48
2021/01/28 07:22:31;;;;;;;13.35;9.60;;;1.80;84.50;;;;;;5073255;28;20036;-46
2021/01/28 07:25:25;;;;;;;13.27;8.75;;;1.90;84.90;;;;;;5073577;28;20098;-49
2021/01/28 07:27:58;;;;;;;14.57;9.23;;;1.90;84.70;;;;;;5074022;28;20335;-47
2021/01/28 07:30:44;;;;;;;14.43;9.77;;;1.90;84.50;;;;;;5071607;28;20021;-48
2021/01/28 07:33:25;;;;;;;14.73;9.30;;;1.90;84.50;;;;;;5053626;28;20048;-46
2021/01/28 07:35:58;;;;;;;14.13;9.95;;;2.00;84.60;;;;;;5054422;28;20029;-47
2021/01/28 07:38:29;;;;;;;13.85;9.23;;;2.00;84.50;;;;;;5052859;28;20056;-50
2021/01/28 07:41:16;;;;;;;13.00;9.32;;;2.00;84.60;;;;;;5071651;28;20045;-46
2021/01/28 07:43:51;;;;;;;17.65;10.27;;;2.00;84.30;;;;;;5062408;28;20028;-47
2021/01/28 07:46:27;;;;;;;11.98;8.38;;;2.00;84.20;;;;;;5070770;28;20032;-49
2021/01/28 07:49:22;;;;;;;18.25;12.07;;;2.00;84.00;;;;;;5066601;28;20039;-48
2021/01/28 07:51:58;;;;;;;31.88;19.75;;;2.00;84.30;;;;;;5057387;28;20165;-48
2021/01/28 07:54:26;;;;;;;36.00;20.23;;;2.00;84.10;;;;;;5085939;28;20024;-49
2021/01/28 07:57:06;;;;;;;39.88;21.52;;;2.00;84.10;;;;;;5071499;28;20052;-48
2021/01/28 07:59:42;;;;;;;17.73;12.38;;;2.10;84.20;;;;;;5066965;28;20323;-48
2021/01/28 08:02:23;;;;;;;19.13;13.50;;;2.10;84.10;;;;;;5070883;28;20441;-51
2021/01/28 08:04:53;;;;;;;13.20;9.15;;;2.10;83.90;;;;;;5071022;28;20120;-51
2021/01/28 08:07:28;;;;;;;17.60;11.60;;;2.00;84.40;;;;;;5065323;28;20062;-48
2021/01/28 08:09:57;;;;;;;14.85;9.35;;;2.00;83.90;;;;;;5067010;28;20026;-48
2021/01/28 08:12:30;;;;;;;17.85;12.05;;;2.00;83.80;;;;;;5074509;28;20070;-46
2021/01/28 08:14:58;;;;;;;14.02;9.77;;;2.00;84.00;;;;;;5073887;28;20036;-51
2021/01/28 08:17:29;;;;;;;15.93;10.85;;;2.00;83.90;;;;;;5073591;28;20362;-51
2021/01/28 08:20:33;;;;;;;14.82;9.13;;;2.00;84.10;;;;;;5074334;28;20324;-47
2021/01/28 08:23:02;;;;;;;13.23;9.38;;;2.00;83.80;;;;;;5031688;28;20174;-49
2021/01/28 08:25:31;;;;;;;15.07;9.70;;;2.00;84.00;;;;;;5031154;28;20153;-49
2021/01/28 08:28:13;;;;;;;14.25;9.68;;;2.10;84.20;;;;;;5051629;28;20060;-48
2021/01/28 08:30:41;;;;;;;15.07;10.45;;;2.10;84.10;;;;;;5076999;28;20028;-49
2021/01/28 08:33:10;;;;;;;18.73;11.98;;;2.10;84.00;;;;;;5078230;28;20090;-50
2021/01/28 08:35:40;;;;;;;14.80;9.63;;;2.10;84.20;;;;;;5078067;28;20338;-47
2021/01/28 08:38:30;;;;;;;15.32;10.50;;;2.10;84.00;;;;;;5078062;28;20032;-47
2021/01/28 08:41:13;;;;;;;15.30;10.20;;;2.10;83.90;;;;;;5076741;28;20040;-49
2021/01/28 08:43:39;;;;;;;15.35;10.02;;;2.20;84.00;;;;;;5076591;28;20625;-48
2021/01/28 08:46:13;;;;;;;14.50;10.15;;;2.20;84.00;;;;;;5056863;28;20029;-47
2021/01/28 08:48:41;;;;;;;15.63;10.15;;;2.10;83.80;;;;;;5076467;28;20028;-48
2021/01/28 08:51:29;;;;;;;16.27;10.52;;;2.20;83.90;;;;;;5077568;28;20028;-48
2021/01/28 08:54:05;;;;;;;16.50;10.68;;;2.10;84.00;;;;;;5078457;28;20037;-47
2021/01/28 08:56:36;;;;;;;16.20;10.15;;;2.20;84.20;;;;;;5077188;28;20024;-46
2021/01/28 08:59:06;;;;;;;15.75;10.55;;;2.20;84.10;;;;;;5078742;28;20106;-47
2021/01/28 09:01:50;;;;;;;16.85;11.32;;;2.20;84.10;;;;;;5073979;28;20051;-52
2021/01/28 09:04:33;;;;;;;16.10;11.05;;;2.30;84.20;;;;;;5057910;28;20033;-47
2021/01/28 09:06:59;;;;;;;14.18;8.77;;;2.30;84.30;;;;;;5057084;28;20049;-46
2021/01/28 09:09:34;;;;;;;17.50;11.45;;;2.30;84.20;;;;;;5057341;28;20434;-48
2021/01/28 09:12:27;;;;;;;15.13;10.88;;;2.40;84.30;;;;;;5057423;28;20032;-47
2021/01/28 09:15:23;;;;;;;16.45;9.88;;;2.40;83.90;;;;;;5069728;28;20371;-48
2021/01/28 09:17:51;;;;;;;15.43;11.20;;;2.40;83.60;;;;;;5076758;28;20053;-48
2021/01/28 09:20:31;;;;;;;17.38;12.07;;;2.40;83.50;;;;;;5077101;28;20032;-48
2021/01/28 09:23:10;;;;;;;16.38;10.70;;;2.40;83.70;;;;;;5077528;28;20028;-46
2021/01/28 09:25:36;;;;;;;15.25;10.07;;;2.40;83.90;;;;;;5076506;28;20029;-48
2021/01/28 09:28:07;;;;;;;17.27;11.02;;;2.40;83.60;;;;;;5078202;28;20029;-48
2021/01/28 09:30:36;;;;;;;16.55;10.60;;;2.40;83.30;;;;;;5076768;28;20024;-49
2021/01/28 09:33:36;;;;;;;12.50;9.27;;;2.40;83.30;;;;;;5077597;28;20040;-48
2021/01/28 09:36:27;;;;;;;15.40;9.85;;;2.40;83.20;;;;;;5077207;28;20024;-47
2021/01/28 09:39:04;;;;;;;15.18;10.27;;;2.40;83.20;;;;;;5076790;28;20032;-50
2021/01/28 09:41:37;;;;;;;17.02;11.10;;;2.40;83.40;;;;;;5076694;28;20315;-49
2021/01/28 09:44:24;;;;;;;15.63;10.68;;;2.40;83.40;;;;;;5076868;28;20127;-48
2021/01/28 09:47:09;;;;;;;14.60;10.43;;;2.40;83.30;;;;;;5076522;28;20127;-48
2021/01/28 09:49:34;;;;;;;13.52;9.23;;;2.40;83.30;;;;;;5076616;28;20115;-50
2021/01/28 09:52:00;;;;;;;16.42;10.45;;;2.40;83.30;;;;;;5076199;28;20419;-48
2021/01/28 09:54:33;;;;;;;15.57;10.77;;;2.40;83.20;;;;;;5076640;28;20024;-50
2021/01/28 09:56:59;;;;;;;14.27;9.55;;;2.40;83.20;;;;;;5076076;28;20028;-48
2021/01/28 09:59:25;;;;;;;15.07;10.10;;;2.40;83.20;;;;;;5077168;28;20029;-49
2021/01/28 10:01:50;;;;;;;14.57;10.10;;;2.40;83.10;;;;;;5075493;28;20072;-51
2021/01/28 10:04:16;;;;;;;14.88;9.73;;;2.40;83.10;;;;;;5076128;28;20111;-52
2021/01/28 10:06:42;;;;;;;13.90;9.10;;;2.30;83.00;;;;;;5076867;28;20017;-48
2021/01/28 10:09:09;;;;;;;15.57;10.40;;;2.30;82.90;;;;;;5075761;28;20032;-49
2021/01/28 10:11:35;;;;;;;13.93;9.68;;;2.30;83.00;;;;;;5074478;28;20056;-49
2021/01/28 10:14:01;;;;;;;14.20;9.85;;;2.30;83.20;;;;;;5076072;28;20031;-49
2021/01/28 10:16:27;;;;;;;13.90;9.00;;;2.30;83.20;;;;;;5074279;28;20021;-49
2021/01/28 10:18:54;;;;;;;15.77;9.43;;;2.30;83.80;;;;;;5075181;28;20079;-48
2021/01/28 10:21:20;;;;;;;15.98;9.10;;;2.30;83.80;;;;;;5074349;28;20428;-49
2021/01/28 10:23:45;;;;;;;14.27;9.70;;;2.30;83.40;;;;;;5075068;28;20036;-51
2021/01/28 10:26:11;;;;;;;13.55;8.98;;;2.30;83.40;;;;;;5068862;28;20097;-51
2021/01/28 10:28:37;;;;;;;14.10;9.73;;;2.30;83.40;;;;;;5071323;28;20418;-51
2021/01/28 10:31:06;;;;;;;13.88;9.75;;;2.30;83.40;;;;;;5075264;28;20327;-51
2021/01/28 10:33:32;;;;;;;20.25;12.82;;;2.30;83.30;;;;;;5068779;28;20025;-49
2021/01/28 10:35:58;;;;;;;18.55;12.25;;;2.30;83.00;;;;;;5057403;28;20021;-49
2021/01/28 10:38:25;;;;;;;14.05;9.63;;;2.30;83.00;;;;;;5076336;28;20028;-47
2021/01/28 10:40:52;;;;;;;18.52;11.60;;;2.30;82.90;;;;;;5074715;28;20127;-49
2021/01/28 10:43:18;;;;;;;18.50;12.10;;;2.20;82.90;;;;;;5088485;28;20325;-47
2021/01/28 10:45:44;;;;;;;22.25;13.82;;;2.20;82.90;;;;;;5088436;28;20107;-49
2021/01/28 10:48:10;;;;;;;16.77;11.73;;;2.20;83.00;;;;;;5074623;28;20119;-49
2021/01/28 10:50:36;;;;;;;18.73;11.43;;;2.20;83.00;;;;;;5075101;28;20146;-47
2021/01/28 10:53:03;;;;;;;15.80;10.98;;;2.20;83.30;;;;;;5075702;28;20028;-50
2021/01/28 10:55:31;;;;;;;17.50;11.35;;;2.30;83.60;;;;;;5074558;28;20074;-48
2021/01/28 10:57:57;;;;;;;14.88;9.45;;;2.30;83.70;;;;;;5074717;28;20125;-47
2021/01/28 11:00:23;;;;;;;15.88;10.80;;;2.40;83.40;;;;;;5076282;28;20054;-51
2021/01/28 11:02:49;;;;;;;13.32;9.50;;;2.40;83.20;;;;;;5074975;28;20663;-50
2021/01/28 11:05:27;;;;;;;14.20;9.80;;;2.40;83.10;;;;;;5074064;28;20197;-51
2021/01/28 11:07:53;;;;;;;16.40;10.30;;;2.40;82.80;;;;;;5075615;28;20035;-48
2021/01/28 11:10:20;;;;;;;15.68;10.80;;;2.50;82.80;;;;;;5074152;28;20034;-50
2021/01/28 11:12:46;;;;;;;15.13;9.65;;;2.40;82.90;;;;;;5074285;28;20798;-48
2021/01/28 11:15:13;;;;;;;16.63;11.40;;;2.50;82.90;;;;;;5071142;28;20066;-49
2021/01/28 11:17:39;;;;;;;12.73;9.05;;;2.40;82.70;;;;;;5076195;28;20362;-50
2021/01/28 11:20:06;;;;;;;12.32;8.82;;;2.50;82.50;;;;;;5076116;28;20115;-48
2021/01/28 11:22:32;;;;;;;12.70;8.93;;;2.50;82.40;;;;;;5075715;28;20072;-49
2021/01/28 11:24:58;;;;;;;15.07;9.23;;;2.50;82.40;;;;;;5073690;28;20029;-53
2021/01/28 11:27:25;;;;;;;13.70;9.55;;;2.50;82.40;;;;;;5074981;28;20036;-48
2021/01/28 11:29:51;;;;;;;14.73;10.10;;;2.50;82.50;;;;;;5072558;28;20131;-49
2021/01/28 11:32:17;;;;;;;12.73;8.90;;;2.50;82.70;;;;;;5073626;28;20401;-50
2021/01/28 11:34:43;;;;;;;14.80;9.98;;;2.50;82.60;;;;;;5073843;28;20107;-49
2021/01/28 11:37:09;;;;;;;15.13;9.75;;;2.50;83.00;;;;;;5073095;28;20119;-51
2021/01/28 11:39:34;;;;;;;13.18;9.50;;;2.50;82.30;;;;;;5073658;28;20115;-50
2021/01/28 11:42:00;;;;;;;12.60;8.80;;;2.50;82.00;;;;;;5072781;28;20384;-48
2021/01/28 11:44:26;;;;;;;25.80;14.68;;;2.40;81.80;;;;;;5071852;28;20449;-48
2021/01/28 11:46:53;;;;;;;14.65;9.60;;;2.40;82.40;;;;;;5073997;28;20025;-49
2021/01/28 11:49:20;;;;;;;13.98;8.88;;;2.40;82.20;;;;;;5075151;28;20024;-49
2021/01/28 11:51:46;;;;;;;15.43;10.10;;;2.40;81.90;;;;;;5074812;28;20028;-52
2021/01/28 11:54:12;;;;;;;13.70;9.93;;;2.30;82.00;;;;;;5076050;28;20036;-49
2021/01/28 11:56:37;;;;;;;14.02;9.70;;;2.30;82.10;;;;;;5074314;28;20036;-51
2021/01/28 11:59:03;;;;;;;16.85;10.57;;;2.30;82.30;;;;;;5074706;28;20581;-48
2021/01/28 12:01:29;;;;;;;15.00;9.77;;;2.30;82.60;;;;;;5072326;28;20082;-50
2021/01/28 12:03:56;;;;;;;16.17;10.70;;;2.30;82.60;;;;;;5065110;28;20423;-48
2021/01/28 12:06:22;;;;;;;14.32;10.05;;;2.30;82.70;;;;;;5076264;28;20025;-47
2021/01/28 12:08:47;;;;;;;17.30;11.32;;;2.30;82.90;;;;;;5061458;28;20051;-50
2021/01/28 12:11:13;;;;;;;18.15;11.82;;;2.40;83.10;;;;;;5057988;28;20031;-52
2021/01/28 12:13:39;;;;;;;27.65;16.17;;;2.40;83.20;;;;;;5073347;28;20028;-48
2021/01/28 12:16:06;;;;;;;27.77;15.60;;;2.30;83.00;;;;;;5075713;28;20032;-53
2021/01/28 12:18:32;;;;;;;14.55;10.20;;;2.40;83.20;;;;;;5080137;28;20296;-48
2021/01/28 12:20:57;;;;;;;15.05;9.68;;;2.40;83.20;;;;;;5059986;28;20040;-48
2021/01/28 12:23:23;;;;;;;16.25;10.15;;;2.40;83.00;;;;;;5057515;28;20095;-50
2021/01/28 12:25:49;;;;;;;17.90;10.73;;;2.40;83.00;;;;;;5073803;28;20035;-49
2021/01/28 12:28:15;;;;;;;16.40;10.57;;;2.30;83.10;;;;;;5076255;28;20040;-49
2021/01/28 12:30:41;;;;;;;15.88;10.90;;;2.30;83.20;;;;;;5072419;28;20056;-49
2021/01/28 12:33:07;;;;;;;15.80;10.50;;;2.30;83.30;;;;;;5072253;28;20446;-48
2021/01/28 12:35:33;;;;;;;13.02;9.55;;;2.30;83.50;;;;;;5060922;28;20020;-50
2021/01/28 12:37:59;;;;;;;15.93;10.95;;;2.30;83.50;;;;;;5076430;28;20028;-47
2021/01/28 12:40:25;;;;;;;16.65;10.70;;;2.30;83.40;;;;;;5074684;28;20036;-53
2021/01/28 12:42:51;;;;;;;17.60;11.02;;;2.30;83.50;;;;;;5069901;28;20111;-50
2021/01/28 12:45:18;;;;;;;15.15;10.38;;;2.30;83.50;;;;;;5062286;28;20044;-49
2021/01/28 12:47:44;;;;;;;14.55;9.75;;;2.30;83.40;;;;;;5072780;28;20033;-48
2021/01/28 12:50:11;;;;;;;16.35;10.68;;;2.30;83.30;;;;;;5065669;28;20358;-51
2021/01/28 12:52:37;;;;;;;16.95;10.63;;;2.30;83.50;;;;;;5057938;28;20403;-52
2021/01/28 12:55:05;;;;;;;13.23;9.50;;;2.30;83.60;;;;;;5067551;28;20119;-49
2021/01/28 12:57:31;;;;;;;14.10;9.85;;;2.20;83.50;;;;;;5077469;28;20028;-49
2021/01/28 12:59:57;;;;;;;14.75;9.55;;;2.30;83.40;;;;;;5077813;28;20028;-52
2021/01/28 13:02:23;;;;;;;18.70;11.95;;;2.20;83.50;;;;;;5077365;28;20031;-49
2021/01/28 13:04:49;;;;;;;15.05;9.90;;;2.20;83.50;;;;;;5077557;28;20024;-48
2021/01/28 13:07:14;;;;;;;17.95;11.27;;;2.20;83.70;;;;;;5077350;28;20040;-50